sensor_id;sensor_type;location;lat;lon;timestamp;P1;durP1;ratioP1;P2;durP2;ratioP2
9924;SDS011;5001;51.674;7.868;2024-01-11T00:01:46;38.67;;;26.07;;
9924;SDS011;5001;51.674;7.868;2024-01-11T00:04:13;39.47;;;28.33;;
9924;SDS011;5001;51.674;7.868;2024-01-11T00:06:42;29.77;;;26.63;;
9924;SDS011;5001;51.674;7.868;2024-01-11T00:09:09;34.07;;;27.50;;
9924;SDS011;5001;51.674;7.868;2024-01-11T00:11:36;28.90;;;26.00;;
9924;SDS011;5001;51.674;7.868;2024-01-11T00:14:03;31.07;;;26.97;;
9924;SDS011;5001;51.674;7.868;2024-01-11T00:16:30;30.43;;;26.70;;
9924;SDS011;5001;51.674;7.868;2024-01-11T00:18:57;32.20;;;27.23;;
9924;SDS011;5001;51.674;7.868;2024-01-11T00:21:25;38.57;;;27.57;;
9924;SDS011;5001;51.674;7.868;2024-01-11T00:23:52;42.07;;;28.73;;
9924;SDS011;5001;51.674;7.868;2024-01-11T00:26:19;32.17;;;27.03;;
9924;SDS011;5001;51.674;7.868;2024-01-11T00:28:46;36.23;;;27.90;;
9924;SDS011;5001;51.674;7.868;2024-01-11T00:31:13;31.27;;;27.90;;
9924;SDS011;5001;51.674;7.868;2024-01-11T00:33:40;35.90;;;28.83;;
9924;SDS011;5001;51.674;7.868;2024-01-11T00:36:07;33.67;;;26.40;;
9924;SDS011;5001;51.674;7.868;2024-01-11T00:38:34;40.33;;;27.00;;
9924;SDS011;5001;51.674;7.868;2024-01-11T00:41:02;34.47;;;27.37;;
9924;SDS011;5001;51.674;7.868;2024-01-11T00:43:29;35.50;;;28.20;;
9924;SDS011;5001;51.674;7.868;2024-01-11T00:45:56;34.00;;;27.77;;
9924;SDS011;5001;51.674;7.868;2024-01-11T00:48:23;37.57;;;29.43;;
9924;SDS011;5001;51.674;7.868;2024-01-11T00:50:50;31.00;;;25.80;;
9924;SDS011;5001;51.674;7.868;2024-01-11T00:53:17;33.37;;;28.37;;
9924;SDS011;5001;51.674;7.868;2024-01-11T00:55:44;36.60;;;28.00;;
9924;SDS011;5001;51.674;7.868;2024-01-11T00:58:11;37.57;;;27.80;;
9924;SDS011;5001;51.674;7.868;2024-01-11T01:00:38;40.43;;;27.27;;
9924;SDS011;5001;51.674;7.868;2024-01-11T01:03:05;29.37;;;26.47;;
9924;SDS011;5001;51.674;7.868;2024-01-11T01:05:32;32.73;;;27.30;;
9924;SDS011;5001;51.674;7.868;2024-01-11T01:07:59;37.77;;;29.47;;
9924;SDS011;5001;51.674;7.868;2024-01-11T01:10:26;33.23;;;29.60;;
9924;SDS011;5001;51.674;7.868;2024-01-11T01:12:53;29.53;;;26.40;;
9924;SDS011;5001;51.674;7.868;2024-01-11T01:15:20;38.00;;;28.50;;
9924;SDS011;5001;51.674;7.868;2024-01-11T01:17:47;33.10;;;27.73;;
9924;SDS011;5001;51.674;7.868;2024-01-11T01:20:14;33.40;;;27.23;;
9924;SDS011;5001;51.674;7.868;2024-01-11T01:22:41;30.80;;;27.60;;
9924;SDS011;5001;51.674;7.868;2024-01-11T01:25:08;33.77;;;27.73;;
9924;SDS011;5001;51.674;7.868;2024-01-11T01:27:35;33.60;;;28.40;;
9924;SDS011;5001;51.674;7.868;2024-01-11T01:30:02;31.57;;;26.47;;
9924;SDS011;5001;51.674;7.868;2024-01-11T01:32:30;33.53;;;26.87;;
9924;SDS011;5001;51.674;7.868;2024-01-11T01:34:57;32.17;;;26.57;;
9924;SDS011;5001;51.674;7.868;2024-01-11T01:37:24;38.17;;;29.30;;
9924;SDS011;5001;51.674;7.868;2024-01-11T01:39:52;41.37;;;30.30;;
9924;SDS011;5001;51.674;7.868;2024-01-11T01:42:19;36.93;;;28.43;;
9924;SDS011;5001;51.674;7.868;2024-01-11T01:44:46;36.07;;;28.23;;
9924;SDS011;5001;51.674;7.868;2024-01-11T01:47:13;34.13;;;26.57;;
9924;SDS011;5001;51.674;7.868;2024-01-11T01:49:40;41.63;;;30.23;;
9924;SDS011;5001;51.674;7.868;2024-01-11T01:52:09;39.17;;;27.50;;
9924;SDS011;5001;51.674;7.868;2024-01-11T01:54:37;33.83;;;27.80;;
9924;SDS011;5001;51.674;7.868;2024-01-11T01:57:04;35.20;;;27.03;;
9924;SDS011;5001;51.674;7.868;2024-01-11T01:59:34;30.53;;;27.10;;
9924;SDS011;5001;51.674;7.868;2024-01-11T02:02:04;36.93;;;28.37;;
9924;SDS011;5001;51.674;7.868;2024-01-11T02:04:32;29.43;;;25.90;;
9924;SDS011;5001;51.674;7.868;2024-01-11T02:06:59;38.83;;;27.10;;
9924;SDS011;5001;51.674;7.868;2024-01-11T02:09:28;35.30;;;28.37;;
9924;SDS011;5001;51.674;7.868;2024-01-11T02:11:56;28.93;;;25.33;;
9924;SDS011;5001;51.674;7.868;2024-01-11T02:14:24;30.30;;;27.00;;
9924;SDS011;5001;51.674;7.868;2024-01-11T02:16:51;30.43;;;24.77;;
9924;SDS011;5001;51.674;7.868;2024-01-11T02:19:19;32.30;;;25.77;;
9924;SDS011;5001;51.674;7.868;2024-01-11T02:21:46;37.60;;;26.50;;
9924;SDS011;5001;51.674;7.868;2024-01-11T02:24:16;33.37;;;26.63;;
9924;SDS011;5001;51.674;7.868;2024-01-11T02:27:00;34.10;;;26.73;;
9924;SDS011;5001;51.674;7.868;2024-01-11T02:29:29;29.33;;;26.20;;
9924;SDS011;5001;51.674;7.868;2024-01-11T02:31:57;35.27;;;27.53;;
9924;SDS011;5001;51.674;7.868;2024-01-11T02:34:26;34.03;;;27.13;;
9924;SDS011;5001;51.674;7.868;2024-01-11T02:36:54;31.13;;;26.30;;
9924;SDS011;5001;51.674;7.868;2024-01-11T02:39:22;27.40;;;24.30;;
9924;SDS011;5001;51.674;7.868;2024-01-11T02:41:51;35.87;;;27.37;;
9924;SDS011;5001;51.674;7.868;2024-01-11T02:44:19;28.80;;;25.80;;
9924;SDS011;5001;51.674;7.868;2024-01-11T02:46:46;32.63;;;26.63;;
9924;SDS011;5001;51.674;7.868;2024-01-11T02:49:13;32.87;;;28.70;;
9924;SDS011;5001;51.674;7.868;2024-01-11T02:51:41;35.43;;;27.20;;
9924;SDS011;5001;51.674;7.868;2024-01-11T02:54:08;39.90;;;27.27;;
9924;SDS011;5001;51.674;7.868;2024-01-11T02:56:35;32.03;;;25.37;;
9924;SDS011;5001;51.674;7.868;2024-01-11T02:59:02;32.73;;;26.17;;
9924;SDS011;5001;51.674;7.868;2024-01-11T03:05:29;29.80;;;26.63;;
9924;SDS011;5001;51.674;7.868;2024-01-11T03:07:56;32.60;;;26.20;;
9924;SDS011;5001;51.674;7.868;2024-01-11T03:10:23;30.13;;;26.70;;
9924;SDS011;5001;51.674;7.868;2024-01-11T03:12:50;31.23;;;25.70;;
9924;SDS011;5001;51.674;7.868;2024-01-11T03:15:17;30.93;;;26.57;;
9924;SDS011;5001;51.674;7.868;2024-01-11T03:17:44;28.77;;;25.77;;
9924;SDS011;5001;51.674;7.868;2024-01-11T03:20:11;32.03;;;27.37;;
9924;SDS011;5001;51.674;7.868;2024-01-11T03:22:44;32.43;;;26.53;;
9924;SDS011;5001;51.674;7.868;2024-01-11T03:25:13;33.43;;;25.73;;
9924;SDS011;5001;51.674;7.868;2024-01-11T03:27:40;29.20;;;24.57;;
9924;SDS011;5001;51.674;7.868;2024-01-11T03:30:07;31.57;;;25.40;;
9924;SDS011;5001;51.674;7.868;2024-01-11T03:32:34;28.83;;;25.77;;
9924;SDS011;5001;51.674;7.868;2024-01-11T03:35:01;32.20;;;25.50;;
9924;SDS011;5001;51.674;7.868;2024-01-11T03:37:29;32.10;;;25.77;;
9924;SDS011;5001;51.674;7.868;2024-01-11T03:39:56;32.63;;;28.23;;
9924;SDS011;5001;51.674;7.868;2024-01-11T03:42:22;34.20;;;25.40;;
9924;SDS011;5001;51.674;7.868;2024-01-11T03:44:50;34.07;;;28.00;;
9924;SDS011;5001;51.674;7.868;2024-01-11T03:47:17;35.03;;;28.23;;
9924;SDS011;5001;51.674;7.868;2024-01-11T03:49:45;39.77;;;28.77;;
9924;SDS011;5001;51.674;7.868;2024-01-11T03:52:11;32.57;;;27.00;;
9924;SDS011;5001;51.674;7.868;2024-01-11T03:54:38;33.73;;;26.30;;
9924;SDS011;5001;51.674;7.868;2024-01-11T03:57:05;32.40;;;25.80;;
9924;SDS011;5001;51.674;7.868;2024-01-11T03:59:33;35.83;;;28.13;;
9924;SDS011;5001;51.674;7.868;2024-01-11T04:02:00;31.80;;;26.10;;
9924;SDS011;5001;51.674;7.868;2024-01-11T04:04:27;37.07;;;27.67;;
9924;SDS011;5001;51.674;7.868;2024-01-11T04:06:54;31.97;;;26.10;;
9924;SDS011;5001;51.674;7.868;2024-01-11T04:09:21;33.57;;;28.13;;
9924;SDS011;5001;51.674;7.868;2024-01-11T04:11:47;33.87;;;27.30;;
9924;SDS011;5001;51.674;7.868;2024-01-11T04:14:14;29.93;;;26.37;;
9924;SDS011;5001;51.674;7.868;2024-01-11T04:16:42;31.60;;;25.53;;
9924;SDS011;5001;51.674;7.868;2024-01-11T04:19:09;31.90;;;25.47;;
9924;SDS011;5001;51.674;7.868;2024-01-11T04:21:36;32.33;;;28.03;;
9924;SDS011;5001;51.674;7.868;2024-01-11T04:24:06;43.33;;;28.27;;
9924;SDS011;5001;51.674;7.868;2024-01-11T04:26:34;31.87;;;27.00;;
9924;SDS011;5001;51.674;7.868;2024-01-11T04:29:04;30.43;;;25.37;;
9924;SDS011;5001;51.674;7.868;2024-01-11T04:31:31;39.43;;;30.53;;
9924;SDS011;5001;51.674;7.868;2024-01-11T04:33:58;35.97;;;26.93;;
9924;SDS011;5001;51.674;7.868;2024-01-11T04:36:25;37.23;;;27.27;;
9924;SDS011;5001;51.674;7.868;2024-01-11T04:38:52;35.17;;;28.07;;
9924;SDS011;5001;51.674;7.868;2024-01-11T04:41:19;39.83;;;28.67;;
9924;SDS011;5001;51.674;7.868;2024-01-11T04:43:46;36.97;;;29.73;;
9924;SDS011;5001;51.674;7.868;2024-01-11T04:46:20;36.40;;;26.50;;
9924;SDS011;5001;51.674;7.868;2024-01-11T04:48:47;28.23;;;25.30;;
9924;SDS011;5001;51.674;7.868;2024-01-11T04:51:16;44.33;;;29.60;;
9924;SDS011;5001;51.674;7.868;2024-01-11T04:53:44;34.20;;;26.17;;
9924;SDS011;5001;51.674;7.868;2024-01-11T04:56:13;38.97;;;28.03;;
9924;SDS011;5001;51.674;7.868;2024-01-11T04:58:41;31.00;;;26.57;;
9924;SDS011;5001;51.674;7.868;2024-01-11T05:01:13;31.83;;;25.77;;
9924;SDS011;5001;51.674;7.868;2024-01-11T05:03:41;35.97;;;29.20;;
9924;SDS011;5001;51.674;7.868;2024-01-11T05:06:14;41.00;;;28.63;;
9924;SDS011;5001;51.674;7.868;2024-01-11T05:08:43;30.33;;;27.43;;
9924;SDS011;5001;51.674;7.868;2024-01-11T05:11:22;40.03;;;27.17;;
9924;SDS011;5001;51.674;7.868;2024-01-11T05:13:53;33.23;;;28.13;;
9924;SDS011;5001;51.674;7.868;2024-01-11T05:16:20;32.53;;;26.20;;
9924;SDS011;5001;51.674;7.868;2024-01-11T05:18:52;37.83;;;26.93;;
9924;SDS011;5001;51.674;7.868;2024-01-11T05:21:20;32.70;;;26.70;;
9924;SDS011;5001;51.674;7.868;2024-01-11T05:23:47;30.57;;;26.33;;
9924;SDS011;5001;51.674;7.868;2024-01-11T05:26:15;30.83;;;26.83;;
9924;SDS011;5001;51.674;7.868;2024-01-11T05:28:43;29.60;;;25.60;;
9924;SDS011;5001;51.674;7.868;2024-01-11T05:31:11;32.13;;;26.80;;
9924;SDS011;5001;51.674;7.868;2024-01-11T05:33:39;39.53;;;27.67;;
9924;SDS011;5001;51.674;7.868;2024-01-11T05:36:06;32.67;;;28.20;;
9924;SDS011;5001;51.674;7.868;2024-01-11T05:38:34;41.47;;;28.80;;
9924;SDS011;5001;51.674;7.868;2024-01-11T05:41:01;32.73;;;27.87;;
9924;SDS011;5001;51.674;7.868;2024-01-11T05:43:29;35.07;;;26.97;;
9924;SDS011;5001;51.674;7.868;2024-01-11T05:45:55;30.23;;;27.00;;
9924;SDS011;5001;51.674;7.868;2024-01-11T05:48:22;32.00;;;26.97;;
9924;SDS011;5001;51.674;7.868;2024-01-11T05:50:50;33.23;;;27.37;;
9924;SDS011;5001;51.674;7.868;2024-01-11T05:53:16;37.27;;;27.53;;
9924;SDS011;5001;51.674;7.868;2024-01-11T05:55:47;30.53;;;27.20;;
9924;SDS011;5001;51.674;7.868;2024-01-11T05:58:15;29.93;;;26.50;;
9924;SDS011;5001;51.674;7.868;2024-01-11T06:00:42;36.67;;;27.00;;
9924;SDS011;5001;51.674;7.868;2024-01-11T06:03:11;31.27;;;25.53;;
9924;SDS011;5001;51.674;7.868;2024-01-11T06:05:39;29.60;;;26.40;;
9924;SDS011;5001;51.674;7.868;2024-01-11T06:08:06;30.63;;;25.50;;
9924;SDS011;5001;51.674;7.868;2024-01-11T06:10:33;36.13;;;27.03;;
9924;SDS011;5001;51.674;7.868;2024-01-11T06:13:00;36.33;;;30.60;;
9924;SDS011;5001;51.674;7.868;2024-01-11T06:15:27;41.10;;;29.13;;
9924;SDS011;5001;51.674;7.868;2024-01-11T06:17:54;44.07;;;30.47;;
9924;SDS011;5001;51.674;7.868;2024-01-11T06:20:21;43.67;;;30.27;;
9924;SDS011;5001;51.674;7.868;2024-01-11T06:22:48;45.13;;;32.67;;
9924;SDS011;5001;51.674;7.868;2024-01-11T06:25:15;43.47;;;29.60;;
9924;SDS011;5001;51.674;7.868;2024-01-11T06:27:42;50.53;;;28.87;;
9924;SDS011;5001;51.674;7.868;2024-01-11T06:30:12;36.20;;;27.60;;
9924;SDS011;5001;51.674;7.868;2024-01-11T06:32:39;40.07;;;28.20;;
9924;SDS011;5001;51.674;7.868;2024-01-11T06:35:06;42.53;;;29.20;;
9924;SDS011;5001;51.674;7.868;2024-01-11T06:37:34;33.43;;;28.50;;
9924;SDS011;5001;51.674;7.868;2024-01-11T06:40:01;37.63;;;31.03;;
9924;SDS011;5001;51.674;7.868;2024-01-11T06:42:33;41.70;;;31.37;;
9924;SDS011;5001;51.674;7.868;2024-01-11T06:45:00;45.53;;;31.13;;
9924;SDS011;5001;51.674;7.868;2024-01-11T06:47:27;39.80;;;28.97;;
9924;SDS011;5001;51.674;7.868;2024-01-11T06:49:55;38.07;;;27.27;;
9924;SDS011;5001;51.674;7.868;2024-01-11T06:52:22;39.70;;;29.30;;
9924;SDS011;5001;51.674;7.868;2024-01-11T06:54:49;42.07;;;27.90;;
9924;SDS011;5001;51.674;7.868;2024-01-11T06:57:16;46.90;;;29.47;;
9924;SDS011;5001;51.674;7.868;2024-01-11T06:59:42;52.83;;;32.97;;
9924;SDS011;5001;51.674;7.868;2024-01-11T07:02:12;44.33;;;33.93;;
9924;SDS011;5001;51.674;7.868;2024-01-11T07:04:43;61.53;;;36.40;;
9924;SDS011;5001;51.674;7.868;2024-01-11T07:07:11;64.37;;;37.00;;
9924;SDS011;5001;51.674;7.868;2024-01-11T07:09:38;76.43;;;36.67;;
9924;SDS011;5001;51.674;7.868;2024-01-11T07:12:05;75.07;;;41.10;;
9924;SDS011;5001;51.674;7.868;2024-01-11T07:14:32;127.83;;;48.97;;
9924;SDS011;5001;51.674;7.868;2024-01-11T07:16:59;68.80;;;39.87;;
9924;SDS011;5001;51.674;7.868;2024-01-11T07:19:26;58.83;;;34.90;;
9924;SDS011;5001;51.674;7.868;2024-01-11T07:21:53;48.03;;;32.67;;
9924;SDS011;5001;51.674;7.868;2024-01-11T07:24:20;88.37;;;44.83;;
9924;SDS011;5001;51.674;7.868;2024-01-11T07:26:47;74.87;;;38.07;;
9924;SDS011;5001;51.674;7.868;2024-01-11T07:29:14;68.10;;;37.73;;
9924;SDS011;5001;51.674;7.868;2024-01-11T07:31:41;67.40;;;35.77;;
9924;SDS011;5001;51.674;7.868;2024-01-11T07:34:08;58.50;;;35.17;;
9924;SDS011;5001;51.674;7.868;2024-01-11T07:36:35;52.20;;;34.87;;
9924;SDS011;5001;51.674;7.868;2024-01-11T07:39:02;79.50;;;41.20;;
9924;SDS011;5001;51.674;7.868;2024-01-11T07:41:29;52.20;;;37.10;;
9924;SDS011;5001;51.674;7.868;2024-01-11T07:43:56;47.10;;;31.43;;
9924;SDS011;5001;51.674;7.868;2024-01-11T07:46:25;40.33;;;31.00;;
9924;SDS011;5001;51.674;7.868;2024-01-11T07:49:04;44.90;;;31.67;;
9924;SDS011;5001;51.674;7.868;2024-01-11T07:51:32;41.17;;;30.80;;
9924;SDS011;5001;51.674;7.868;2024-01-11T07:54:01;39.77;;;30.37;;
9924;SDS011;5001;51.674;7.868;2024-01-11T07:56:29;39.67;;;29.63;;
9924;SDS011;5001;51.674;7.868;2024-01-11T07:58:56;33.73;;;28.47;;
9924;SDS011;5001;51.674;7.868;2024-01-11T08:01:23;44.53;;;28.70;;
9924;SDS011;5001;51.674;7.868;2024-01-11T08:03:51;38.13;;;30.27;;
9924;SDS011;5001;51.674;7.868;2024-01-11T08:06:20;51.70;;;33.93;;
9924;SDS011;5001;51.674;7.868;2024-01-11T08:08:47;45.70;;;30.03;;
9924;SDS011;5001;51.674;7.868;2024-01-11T08:11:18;42.57;;;30.87;;
9924;SDS011;5001;51.674;7.868;2024-01-11T08:13:46;39.80;;;29.97;;
9924;SDS011;5001;51.674;7.868;2024-01-11T08:16:16;40.80;;;29.20;;
9924;SDS011;5001;51.674;7.868;2024-01-11T08:18:46;47.70;;;29.57;;
9924;SDS011;5001;51.674;7.868;2024-01-11T08:21:15;41.30;;;31.37;;
9924;SDS011;5001;51.674;7.868;2024-01-11T08:23:42;36.33;;;27.73;;
9924;SDS011;5001;51.674;7.868;2024-01-11T08:26:15;44.30;;;29.80;;
9924;SDS011;5001;51.674;7.868;2024-01-11T08:28:45;42.47;;;29.67;;
9924;SDS011;5001;51.674;7.868;2024-01-11T08:31:12;30.67;;;27.37;;
9924;SDS011;5001;51.674;7.868;2024-01-11T08:33:39;30.60;;;26.37;;
9924;SDS011;5001;51.674;7.868;2024-01-11T08:36:07;39.13;;;28.33;;
9924;SDS011;5001;51.674;7.868;2024-01-11T08:38:34;35.37;;;28.83;;
9924;SDS011;5001;51.674;7.868;2024-01-11T08:41:02;39.80;;;27.80;;
9924;SDS011;5001;51.674;7.868;2024-01-11T08:43:30;36.67;;;28.30;;
9924;SDS011;5001;51.674;7.868;2024-01-11T08:45:57;36.57;;;28.27;;
9924;SDS011;5001;51.674;7.868;2024-01-11T08:48:24;37.60;;;26.73;;
9924;SDS011;5001;51.674;7.868;2024-01-11T08:50:52;37.00;;;30.03;;
9924;SDS011;5001;51.674;7.868;2024-01-11T08:53:19;39.23;;;26.53;;
9924;SDS011;5001;51.674;7.868;2024-01-11T08:55:46;42.67;;;32.47;;
9924;SDS011;5001;51.674;7.868;2024-01-11T08:58:14;39.73;;;30.47;;
9924;SDS011;5001;51.674;7.868;2024-01-11T09:00:40;33.03;;;28.23;;
9924;SDS011;5001;51.674;7.868;2024-01-11T09:03:07;35.73;;;27.83;;
9924;SDS011;5001;51.674;7.868;2024-01-11T09:05:35;37.23;;;29.43;;
9924;SDS011;5001;51.674;7.868;2024-01-11T09:08:02;44.37;;;29.77;;
9924;SDS011;5001;51.674;7.868;2024-01-11T09:10:32;40.20;;;28.43;;
9924;SDS011;5001;51.674;7.868;2024-01-11T09:12:59;40.27;;;29.53;;
9924;SDS011;5001;51.674;7.868;2024-01-11T09:15:26;37.30;;;28.07;;
9924;SDS011;5001;51.674;7.868;2024-01-11T09:17:53;43.50;;;28.40;;
9924;SDS011;5001;51.674;7.868;2024-01-11T09:20:20;44.40;;;28.03;;
9924;SDS011;5001;51.674;7.868;2024-01-11T09:22:48;43.50;;;29.47;;
9924;SDS011;5001;51.674;7.868;2024-01-11T09:25:15;37.93;;;29.43;;
9924;SDS011;5001;51.674;7.868;2024-01-11T09:27:42;45.90;;;32.27;;
9924;SDS011;5001;51.674;7.868;2024-01-11T09:30:09;36.03;;;29.80;;
9924;SDS011;5001;51.674;7.868;2024-01-11T09:32:36;32.33;;;27.67;;
9924;SDS011;5001;51.674;7.868;2024-01-11T09:35:03;38.80;;;29.77;;
9924;SDS011;5001;51.674;7.868;2024-01-11T09:37:31;41.47;;;30.67;;
9924;SDS011;5001;51.674;7.868;2024-01-11T09:39:58;38.77;;;30.07;;
9924;SDS011;5001;51.674;7.868;2024-01-11T09:42:27;44.13;;;32.67;;
9924;SDS011;5001;51.674;7.868;2024-01-11T09:44:54;44.23;;;32.87;;
9924;SDS011;5001;51.674;7.868;2024-01-11T09:47:23;45.33;;;33.77;;
9924;SDS011;5001;51.674;7.868;2024-01-11T09:49:53;40.23;;;33.30;;
9924;SDS011;5001;51.674;7.868;2024-01-11T09:52:23;49.23;;;36.10;;
9924;SDS011;5001;51.674;7.868;2024-01-11T09:54:52;39.75;;;34.40;;
9924;SDS011;5001;51.674;7.868;2024-01-11T09:57:21;46.25;;;36.03;;
9924;SDS011;5001;51.674;7.868;2024-01-11T09:59:51;54.53;;;40.17;;
9924;SDS011;5001;51.674;7.868;2024-01-11T10:02:25;45.05;;;35.28;;
9924;SDS011;5001;51.674;7.868;2024-01-11T10:04:55;58.53;;;39.63;;
9924;SDS011;5001;51.674;7.868;2024-01-11T10:07:23;44.33;;;35.67;;
9924;SDS011;5001;51.674;7.868;2024-01-11T10:09:53;54.83;;;38.47;;
9924;SDS011;5001;51.674;7.868;2024-01-11T10:12:21;53.92;;;38.72;;
9924;SDS011;5001;51.674;7.868;2024-01-11T10:14:51;50.05;;;38.15;;
9924;SDS011;5001;51.674;7.868;2024-01-11T10:17:19;48.92;;;35.92;;
9924;SDS011;5001;51.674;7.868;2024-01-11T10:19:52;48.55;;;36.97;;
9924;SDS011;5001;51.674;7.868;2024-01-11T10:22:20;48.47;;;37.20;;
9924;SDS011;5001;51.674;7.868;2024-01-11T10:24:59;47.65;;;36.92;;
9924;SDS011;5001;51.674;7.868;2024-01-11T10:27:39;51.08;;;38.40;;
9924;SDS011;5001;51.674;7.868;2024-01-11T10:30:10;45.25;;;37.80;;
9924;SDS011;5001;51.674;7.868;2024-01-11T10:32:46;47.88;;;36.90;;
9924;SDS011;5001;51.674;7.868;2024-01-11T10:35:14;49.00;;;37.45;;
9924;SDS011;5001;51.674;7.868;2024-01-11T10:37:44;49.35;;;39.55;;
9924;SDS011;5001;51.674;7.868;2024-01-11T10:40:11;50.40;;;39.00;;
9924;SDS011;5001;51.674;7.868;2024-01-11T10:42:41;45.45;;;37.97;;
9924;SDS011;5001;51.674;7.868;2024-01-11T10:45:16;47.70;;;39.38;;
9924;SDS011;5001;51.674;7.868;2024-01-11T10:47:54;46.47;;;36.42;;
9924;SDS011;5001;51.674;7.868;2024-01-11T10:50:36;48.28;;;37.30;;
9924;SDS011;5001;51.674;7.868;2024-01-11T10:55:41;48.45;;;38.55;;
9924;SDS011;5001;51.674;7.868;2024-01-11T10:58:08;56.45;;;39.33;;
9924;SDS011;5001;51.674;7.868;2024-01-11T11:00:37;52.53;;;39.00;;
9924;SDS011;5001;51.674;7.868;2024-01-11T11:03:04;51.50;;;38.67;;
9924;SDS011;5001;51.674;7.868;2024-01-11T11:05:34;48.28;;;39.00;;
9924;SDS011;5001;51.674;7.868;2024-01-11T11:08:02;50.33;;;39.05;;
9924;SDS011;5001;51.674;7.868;2024-01-11T11:10:30;49.00;;;38.75;;
9924;SDS011;5001;51.674;7.868;2024-01-11T11:13:00;48.13;;;38.00;;
9924;SDS011;5001;51.674;7.868;2024-01-11T11:15:27;48.20;;;37.90;;
9924;SDS011;5001;51.674;7.868;2024-01-11T11:17:56;44.35;;;36.53;;
9924;SDS011;5001;51.674;7.868;2024-01-11T11:20:24;54.92;;;37.90;;
9924;SDS011;5001;51.674;7.868;2024-01-11T11:23:03;49.25;;;37.70;;
9924;SDS011;5001;51.674;7.868;2024-01-11T11:25:32;45.17;;;36.42;;
9924;SDS011;5001;51.674;7.868;2024-01-11T11:28:00;50.15;;;39.03;;
9924;SDS011;5001;51.674;7.868;2024-01-11T11:30:32;45.90;;;36.47;;
9924;SDS011;5001;51.674;7.868;2024-01-11T11:33:18;45.65;;;36.88;;
9924;SDS011;5001;51.674;7.868;2024-01-11T11:35:52;46.53;;;36.55;;
9924;SDS011;5001;51.674;7.868;2024-01-11T11:38:21;46.53;;;36.45;;
9924;SDS011;5001;51.674;7.868;2024-01-11T11:40:51;51.90;;;37.58;;
9924;SDS011;5001;51.674;7.868;2024-01-11T11:43:20;53.03;;;36.45;;
9924;SDS011;5001;51.674;7.868;2024-01-11T11:45:48;45.38;;;35.65;;
9924;SDS011;5001;51.674;7.868;2024-01-11T11:51:10;45.90;;;36.22;;
9924;SDS011;5001;51.674;7.868;2024-01-11T11:53:40;46.63;;;36.95;;
9924;SDS011;5001;51.674;7.868;2024-01-11T11:56:08;47.47;;;37.47;;
9924;SDS011;5001;51.674;7.868;2024-01-11T11:58:37;51.63;;;38.20;;
9924;SDS011;5001;51.674;7.868;2024-01-11T12:01:07;47.22;;;37.28;;
9924;SDS011;5001;51.674;7.868;2024-01-11T12:03:40;46.33;;;35.33;;
9924;SDS011;5001;51.674;7.868;2024-01-11T12:06:08;50.38;;;37.60;;
9924;SDS011;5001;51.674;7.868;2024-01-11T12:08:37;46.63;;;36.97;;
9924;SDS011;5001;51.674;7.868;2024-01-11T12:11:07;51.03;;;35.50;;
9924;SDS011;5001;51.674;7.868;2024-01-11T12:13:34;46.20;;;35.57;;
9924;SDS011;5001;51.674;7.868;2024-01-11T12:16:02;42.80;;;34.20;;
9924;SDS011;5001;51.674;7.868;2024-01-11T12:18:29;44.57;;;33.90;;
9924;SDS011;5001;51.674;7.868;2024-01-11T12:20:56;51.50;;;33.93;;
9924;SDS011;5001;51.674;7.868;2024-01-11T12:23:24;45.20;;;34.90;;
9924;SDS011;5001;51.674;7.868;2024-01-11T12:26:00;43.73;;;33.07;;
9924;SDS011;5001;51.674;7.868;2024-01-11T12:28:29;37.43;;;31.10;;
9924;SDS011;5001;51.674;7.868;2024-01-11T12:30:57;41.70;;;30.93;;
9924;SDS011;5001;51.674;7.868;2024-01-11T12:33:24;38.70;;;31.70;;
9924;SDS011;5001;51.674;7.868;2024-01-11T12:35:53;37.17;;;30.67;;
9924;SDS011;5001;51.674;7.868;2024-01-11T12:38:20;42.80;;;31.17;;
9924;SDS011;5001;51.674;7.868;2024-01-11T12:40:47;37.67;;;31.23;;
9924;SDS011;5001;51.674;7.868;2024-01-11T12:43:15;36.77;;;30.60;;
9924;SDS011;5001;51.674;7.868;2024-01-11T12:45:42;36.67;;;31.03;;
9924;SDS011;5001;51.674;7.868;2024-01-11T12:48:09;37.43;;;29.73;;
9924;SDS011;5001;51.674;7.868;2024-01-11T12:50:40;33.30;;;29.07;;
9924;SDS011;5001;51.674;7.868;2024-01-11T12:53:08;33.43;;;29.37;;
9924;SDS011;5001;51.674;7.868;2024-01-11T12:55:45;36.83;;;29.83;;
9924;SDS011;5001;51.674;7.868;2024-01-11T12:58:29;37.57;;;28.80;;
9924;SDS011;5001;51.674;7.868;2024-01-11T13:00:56;33.13;;;28.17;;
9924;SDS011;5001;51.674;7.868;2024-01-11T13:03:24;29.03;;;25.90;;
9924;SDS011;5001;51.674;7.868;2024-01-11T13:05:53;31.33;;;25.60;;
9924;SDS011;5001;51.674;7.868;2024-01-11T13:08:21;27.80;;;24.83;;
9924;SDS011;5001;51.674;7.868;2024-01-11T13:10:48;26.53;;;23.73;;
9924;SDS011;5001;51.674;7.868;2024-01-11T13:13:15;26.23;;;23.43;;
9924;SDS011;5001;51.674;7.868;2024-01-11T13:15:42;24.73;;;22.13;;
9924;SDS011;5001;51.674;7.868;2024-01-11T13:18:09;23.03;;;20.93;;
9924;SDS011;5001;51.674;7.868;2024-01-11T13:20:36;23.03;;;20.93;;
9924;SDS011;5001;51.674;7.868;2024-01-11T13:23:17;22.30;;;20.30;;
9924;SDS011;5001;51.674;7.868;2024-01-11T13:25:48;23.17;;;21.03;;
9924;SDS011;5001;51.674;7.868;2024-01-11T13:28:16;27.43;;;24.57;;
9924;SDS011;5001;51.674;7.868;2024-01-11T13:30:45;23.53;;;21.43;;
9924;SDS011;5001;51.674;7.868;2024-01-11T13:33:14;25.20;;;22.87;;
9924;SDS011;5001;51.674;7.868;2024-01-11T13:35:44;24.23;;;21.93;;
9924;SDS011;5001;51.674;7.868;2024-01-11T13:38:12;22.47;;;20.37;;
9924;SDS011;5001;51.674;7.868;2024-01-11T13:40:39;22.17;;;20.00;;
9924;SDS011;5001;51.674;7.868;2024-01-11T13:43:07;22.30;;;20.27;;
9924;SDS011;5001;51.674;7.868;2024-01-11T13:45:34;24.03;;;21.73;;
9924;SDS011;5001;51.674;7.868;2024-01-11T13:48:05;25.37;;;22.40;;
9924;SDS011;5001;51.674;7.868;2024-01-11T13:50:32;22.70;;;20.33;;
9924;SDS011;5001;51.674;7.868;2024-01-11T13:53:00;21.53;;;19.67;;
9924;SDS011;5001;51.674;7.868;2024-01-11T13:55:28;22.17;;;19.93;;
9924;SDS011;5001;51.674;7.868;2024-01-11T13:58:04;20.83;;;19.13;;
9924;SDS011;5001;51.674;7.868;2024-01-11T14:00:32;22.10;;;19.30;;
9924;SDS011;5001;51.674;7.868;2024-01-11T14:02:59;24.13;;;21.77;;
9924;SDS011;5001;51.674;7.868;2024-01-11T14:05:26;22.97;;;20.80;;
9924;SDS011;5001;51.674;7.868;2024-01-11T14:07:53;22.07;;;20.03;;
9924;SDS011;5001;51.674;7.868;2024-01-11T14:10:25;21.17;;;19.27;;
9924;SDS011;5001;51.674;7.868;2024-01-11T14:12:54;32.40;;;24.83;;
9924;SDS011;5001;51.674;7.868;2024-01-11T14:15:21;21.87;;;19.70;;
9924;SDS011;5001;51.674;7.868;2024-01-11T14:17:51;23.63;;;21.27;;
9924;SDS011;5001;51.674;7.868;2024-01-11T14:20:18;21.23;;;19.60;;
9924;SDS011;5001;51.674;7.868;2024-01-11T14:22:46;20.87;;;19.13;;
9924;SDS011;5001;51.674;7.868;2024-01-11T14:25:19;20.37;;;18.77;;
9924;SDS011;5001;51.674;7.868;2024-01-11T14:27:47;20.17;;;18.37;;
9924;SDS011;5001;51.674;7.868;2024-01-11T14:30:15;20.70;;;18.93;;
9924;SDS011;5001;51.674;7.868;2024-01-11T14:32:43;23.23;;;19.27;;
9924;SDS011;5001;51.674;7.868;2024-01-11T14:35:10;44.87;;;28.77;;
9924;SDS011;5001;51.674;7.868;2024-01-11T14:37:38;64.87;;;38.57;;
9924;SDS011;5001;51.674;7.868;2024-01-11T14:40:07;24.47;;;21.93;;
9924;SDS011;5001;51.674;7.868;2024-01-11T14:42:38;23.73;;;21.33;;
9924;SDS011;5001;51.674;7.868;2024-01-11T14:45:05;24.90;;;22.50;;
9924;SDS011;5001;51.674;7.868;2024-01-11T14:47:33;23.80;;;21.70;;
9924;SDS011;5001;51.674;7.868;2024-01-11T14:50:01;22.93;;;20.93;;
9924;SDS011;5001;51.674;7.868;2024-01-11T14:52:30;24.73;;;22.30;;
9924;SDS011;5001;51.674;7.868;2024-01-11T14:54:57;20.70;;;19.00;;
9924;SDS011;5001;51.674;7.868;2024-01-11T14:57:25;20.80;;;18.90;;
9924;SDS011;5001;51.674;7.868;2024-01-11T14:59:52;21.93;;;19.97;;
9924;SDS011;5001;51.674;7.868;2024-01-11T15:02:19;21.33;;;19.47;;
9924;SDS011;5001;51.674;7.868;2024-01-11T15:04:46;21.00;;;19.13;;